Time;durP1;ratioP1;P1;durP2;ratioP2;P2;SDS_P1;SDS_P2;PMS_P1;PMS_P2;Temp;Humidity;BMP_temperature;BMP_pressure;BME280_temperature;BME280_humidity;BME280_pressure;Samples;Min_cycle;Max_cycle;Signal;HPM_P1;HPM_P2
2023/07/08 00:00:38;;;;;;;10.23;4.37;;;22.60;26.80;;;;;;5005749;28;20437;-84
2023/07/08 00:03:18;;;;;;;10.10;4.93;;;22.60;27.20;;;;;;5001528;28;20457;-84
2023/07/08 00:05:58;;;;;;;14.03;4.77;;;22.60;27.50;;;;;;5000056;28;20490;-84
2023/07/08 00:08:35;;;;;;;8.67;4.40;;;22.60;27.70;;;;;;5014781;28;20513;-84
2023/07/08 00:11:14;;;;;;;8.23;5.37;;;22.60;28.50;;;;;;5013081;28;20460;-84
2023/07/08 00:13:45;;;;;;;9.57;4.60;;;22.60;26.80;;;;;;5008192;28;21112;-84
2023/07/08 00:16:21;;;;;;;10.00;3.87;;;22.60;26.80;;;;;;5006710;28;20457;-84
2023/07/08 00:18:49;;;;;;;5.77;4.23;;;22.50;27.10;;;;;;5018718;28;20441;-84
2023/07/08 00:25:14;;;;;;;;;;;;;;;;;;;;;
2023/07/08 00:27:40;;;;;;;13.27;5.40;;;22.50;27.80;;;;;;4976066;28;20542;-84
2023/07/08 00:30:36;;;;;;;9.70;4.23;;;22.50;28.30;;;;;;5005483;28;20477;-84
2023/07/08 00:33:16;;;;;;;13.10;4.90;;;22.50;28.60;;;;;;5006133;28;20449;-84
2023/07/08 00:36:15;;;;;;;8.60;4.30;;;22.60;30.00;;;;;;5008645;28;20447;-84
2023/07/08 00:41:46;;;;;;;12.60;4.87;;;22.60;31.40;;;;;;5004496;28;20664;-83
2023/07/08 00:44:20;;;;;;;15.77;5.00;;;22.50;33.60;;;;;;5004989;28;20453;-85
2023/07/08 00:47:16;;;;;;;14.47;5.23;;;22.40;34.20;;;;;;5004330;28;20463;-84
2023/07/08 00:50:05;;;;;;;15.73;5.80;;;22.40;37.00;;;;;;5003580;28;20479;-84
2023/07/08 00:52:59;;;;;;;10.33;4.30;;;22.40;38.70;;;;;;5003911;28;20466;-84
2023/07/08 00:55:35;;;;;;;11.50;4.30;;;22.40;40.60;;;;;;5006314;28;20459;-84
2023/07/08 00:58:11;;;;;;;9.97;4.90;;;22.30;42.60;;;;;;5003709;28;20463;-84
2023/07/08 01:00:53;;;;;;;11.30;5.30;;;22.20;46.00;;;;;;5020250;28;20499;-84
2023/07/08 01:03:52;;;;;;;7.27;4.40;;;22.20;46.70;;;;;;5005146;28;20460;-84
2023/07/08 01:06:31;;;;;;;10.63;5.43;;;22.10;48.50;;;;;;5006795;28;20507;-84
2023/07/08 01:09:09;;;;;;;11.87;4.77;;;22.10;64.00;;;;;;5006843;28;20521;-83
2023/07/08 01:11:45;;;;;;;12.60;5.40;;;22.10;51.90;;;;;;5001216;28;20834;-84
2023/07/08 01:14:20;;;;;;;8.80;4.20;;;22.00;56.00;;;;;;5007789;28;20462;-84
2023/07/08 01:16:52;;;;;;;23.40;6.20;;;22.00;56.80;;;;;;5004165;28;20440;-84
2023/07/08 01:19:34;;;;;;;10.30;4.80;;;22.00;57.60;;;;;;5006026;28;20472;-84
2023/07/08 01:22:18;;;;;;;13.73;5.10;;;22.00;58.30;;;;;;5009846;28;20478;-83
2023/07/08 01:24:48;;;;;;;12.97;5.17;;;22.00;62.20;;;;;;5019947;28;20450;-83
2023/07/08 01:27:21;;;;;;;17.90;5.17;;;21.90;63.60;;;;;;5001208;28;20509;-83
2023/07/08 01:30:08;;;;;;;17.70;5.80;;;21.90;69.30;;;;;;5001228;28;20445;-84
2023/07/08 01:32:45;;;;;;;12.10;4.37;;;21.80;68.90;;;;;;5023119;28;20467;-84
2023/07/08 01:35:39;;;;;;;10.00;4.40;;;21.80;71.90;;;;;;5006430;28;20448;-84
2023/07/08 01:38:36;;;;;;;9.00;4.97;;;21.80;72.00;;;;;;4997123;28;21035;-84
2023/07/08 01:44:37;;;;;;;11.17;5.50;;;21.80;75.30;;;;;;5007504;28;20452;-84
2023/07/08 01:47:33;;;;;;;13.87;4.77;;;21.90;77.40;;;;;;4999750;28;20468;-84
2023/07/08 01:50:06;;;;;;;16.43;5.60;;;21.90;79.10;;;;;;4999592;28;20499;-84
2023/07/08 01:52:44;;;;;;;12.17;5.60;;;21.90;81.30;;;;;;5003072;28;20459;-84
2023/07/08 01:55:33;;;;;;;;;;;;;;;;;;;;;
2023/07/08 01:58:08;;;;;;;11.20;4.77;;;22.00;82.40;;;;;;4999162;28;20526;-83
2023/07/08 02:00:41;;;;;;;10.10;4.03;;;22.00;81.30;;;;;;5006713;28;20513;-84
2023/07/08 02:03:32;;;;;;;12.87;4.90;;;22.00;81.20;;;;;;4999545;28;20452;-84
2023/07/08 02:06:07;;;;;;;14.97;5.50;;;22.00;80.90;;;;;;5008566;28;20474;-84
2023/07/08 02:08:35;;;;;;;13.90;5.43;;;22.00;79.30;;;;;;5002286;28;20462;-84
2023/07/08 02:11:13;;;;;;;13.73;5.47;;;22.00;79.50;;;;;;5008428;28;20463;-84
2023/07/08 02:13:50;;;;;;;11.43;5.33;;;22.00;78.10;;;;;;5006002;28;20470;-84
2023/07/08 02:16:30;;;;;;;17.87;5.40;;;22.00;79.50;;;;;;5002055;28;20455;-85
2023/07/08 02:19:04;;;;;;;16.53;5.60;;;21.90;77.80;;;;;;5007798;28;20516;-84
2023/07/08 02:21:30;;;;;;;13.87;6.40;;;21.80;75.90;;;;;;5003487;28;20491;-84
2023/07/08 02:23:57;;;;;;;15.87;5.60;;;21.80;72.00;;;;;;5002597;28;20453;-84
2023/07/08 02:26:26;;;;;;;13.73;6.10;;;21.70;68.20;;;;;;5002950;28;20840;-84
2023/07/08 02:32:12;;;;;;;22.17;6.10;;;21.60;65.80;;;;;;5002550;28;20472;-84
2023/07/08 02:34:47;;;;;;;20.10;6.37;;;21.50;65.60;;;;;;4999379;28;20564;-84
2023/07/08 02:37:15;;;;;;;15.83;6.00;;;21.50;65.00;;;;;;5003170;28;20450;-84
2023/07/08 02:39:54;;;;;;;19.60;6.50;;;21.40;64.60;;;;;;5007565;28;20454;-84
2023/07/08 02:42:32;;;;;;;17.80;6.60;;;21.40;64.00;;;;;;5004540;28;20560;-84
2023/07/08 02:47:54;;;;;;;29.13;7.60;;;21.30;62.00;;;;;;5005455;28;20794;-85
2023/07/08 02:50:24;;;;;;;22.80;7.50;;;21.30;61.80;;;;;;5006794;28;20447;-84
2023/07/08 02:52:56;;;;;;;23.97;6.53;;;21.20;60.70;;;;;;5005637;28;20477;-84
2023/07/08 02:55:24;;;;;;;17.10;7.60;;;21.20;60.00;;;;;;5009500;28;20445;-84
2023/07/08 02:58:23;;;;;;;17.90;6.27;;;21.20;59.30;;;;;;5007441;28;20495;-84
2023/07/08 03:01:08;;;;;;;33.80;6.93;;;21.20;59.50;;;;;;5003485;28;20460;-84
2023/07/08 03:03:43;;;;;;;23.73;7.63;;;21.20;59.10;;;;;;5005012;28;20450;-85
2023/07/08 03:06:11;;;;;;;20.10;8.00;;;21.20;59.20;;;;;;5001639;28;21030;-85
2023/07/08 03:08:51;;;;;;;23.97;7.87;;;21.20;58.60;;;;;;5015005;28;20468;-84
2023/07/08 03:11:24;;;;;;;16.93;7.77;;;21.20;59.70;;;;;;5000299;28;20467;-84
2023/07/08 03:13:57;;;;;;;27.33;7.60;;;21.10;59.60;;;;;;5005483;28;20441;-84
2023/07/08 03:16:33;;;;;;;19.70;7.30;;;21.10;58.00;;;;;;5005110;28;20450;-85
2023/07/08 03:19:02;;;;;;;17.83;7.73;;;21.00;57.40;;;;;;5023489;28;20446;-84
2023/07/08 03:21:37;;;;;;;19.10;7.83;;;21.00;55.80;;;;;;5025236;28;20499;-83
2023/07/08 03:24:05;;;;;;;19.00;7.93;;;21.00;56.10;;;;;;5006881;28;20477;-84
2023/07/08 03:27:03;;;;;;;;;;;;;;;;;;;;;
2023/07/08 03:29:35;;;;;;;15.70;7.43;;;20.90;56.40;;;;;;5003265;28;20887;-83
2023/07/08 03:32:11;;;;;;;21.00;7.13;;;20.80;55.90;;;;;;5011704;28;20462;-84
2023/07/08 03:34:57;;;;;;;13.83;6.87;;;20.90;57.00;;;;;;5005070;28;20462;-83
2023/07/08 03:37:30;;;;;;;21.17;7.33;;;20.80;56.90;;;;;;5003637;28;20442;-84
2023/07/08 03:40:19;;;;;;;11.67;6.57;;;20.80;56.10;;;;;;5008739;28;20466;-84
2023/07/08 03:42:45;;;;;;;9.93;6.60;;;20.80;56.50;;;;;;5008373;28;20959;-84
2023/07/08 03:45:14;;;;;;;8.93;5.90;;;20.80;56.60;;;;;;5011755;28;20599;-84
2023/07/08 03:47:45;;;;;;;13.10;7.17;;;20.70;57.50;;;;;;5005581;28;20184;-84
2023/07/08 03:50:28;;;;;;;15.13;7.40;;;20.60;58.40;;;;;;5010815;28;21007;-84
2023/07/08 03:53:14;;;;;;;13.57;7.13;;;20.60;58.30;;;;;;5006708;28;20443;-84
2023/07/08 03:55:43;;;;;;;12.83;6.67;;;20.50;58.90;;;;;;5009277;28;20504;-84
2023/07/08 03:58:17;;;;;;;8.33;6.60;;;20.50;58.60;;;;;;5010306;28;20523;-84
2023/07/08 04:00:46;;;;;;;8.43;6.10;;;20.50;58.70;;;;;;5012775;28;20455;-84
2023/07/08 04:03:21;;;;;;;8.83;6.37;;;20.50;59.70;;;;;;5007460;28;20460;-84
2023/07/08 04:05:54;;;;;;;9.50;6.50;;;20.50;72.50;;;;;;5004589;28;20999;-84
2023/07/08 04:08:29;;;;;;;12.37;6.20;;;20.50;59.00;;;;;;5013356;28;20450;-84
2023/07/08 04:11:23;;;;;;;9.50;6.40;;;20.60;58.80;;;;;;5000674;28;20476;-84
2023/07/08 04:13:52;;;;;;;9.33;6.50;;;20.60;58.60;;;;;;5022218;28;20467;-84
2023/07/08 04:16:42;;;;;;;9.27;6.97;;;20.70;59.60;;;;;;5007347;28;20613;-84
2023/07/08 04:19:14;;;;;;;7.10;5.70;;;20.70;58.80;;;;;;5003791;28;20818;-84
2023/07/08 04:21:40;;;;;;;8.23;6.37;;;20.90;59.10;;;;;;5006847;28;20471;-85
2023/07/08 04:24:11;;;;;;;8.53;6.30;;;21.00;58.10;;;;;;5008067;28;20464;-84
2023/07/08 04:26:40;;;;;;;8.53;6.23;;;21.00;58.00;;;;;;5009690;28;20477;-84
2023/07/08 04:29:24;;;;;;;7.90;6.77;;;21.00;58.40;;;;;;5006161;28;20431;-84
2023/07/08 04:31:54;;;;;;;14.27;6.30;;;21.00;58.50;;;;;;5012507;28;20538;-85
2023/07/08 04:34:25;;;;;;;12.67;7.20;;;21.00;58.70;;;;;;5006191;28;20432;-85
2023/07/08 04:37:02;;;;;;;9.10;6.67;;;21.00;58.80;;;;;;5008381;28;20448;-84
2023/07/08 04:39:34;;;;;;;10.80;6.37;;;21.00;58.50;;;;;;5010050;28;20442;-84
2023/07/08 04:42:20;;;;;;;12.27;6.97;;;21.10;58.50;;;;;;5006090;28;21058;-84
2023/07/08 04:44:53;;;;;;;7.87;6.13;;;21.10;58.90;;;;;;5007993;28;20909;-84
2023/07/08 04:47:29;;;;;;;8.70;6.40;;;21.20;59.40;;;;;;5012009;28;20480;-83
2023/07/08 04:50:09;;;;;;;10.77;7.50;;;21.20;60.60;;;;;;5008133;28;20482;-84
2023/07/08 04:52:47;;;;;;;12.50;7.10;;;21.20;59.80;;;;;;5006501;28;20498;-83
2023/07/08 04:55:21;;;;;;;7.53;6.73;;;21.20;59.20;;;;;;5009836;28;21148;-86
2023/07/08 04:57:54;;;;;;;9.37;6.20;;;21.30;59.80;;;;;;5009186;28;21008;-84
2023/07/08 05:00:25;;;;;;;9.57;6.30;;;21.30;59.10;;;;;;5007310;28;20535;-84
2023/07/08 05:06:09;;;;;;;6.83;5.70;;;21.40;59.00;;;;;;5006708;28;20492;-84
2023/07/08 05:08:40;;;;;;;8.17;5.90;;;21.60;58.80;;;;;;5002068;28;20442;-84
2023/07/08 05:11:16;;;;;;;8.37;6.53;;;21.90;58.00;;;;;;5021809;28;20576;-84
2023/07/08 05:14:13;;;;;;;10.73;6.60;;;22.00;55.90;;;;;;5008598;28;20522;-83
2023/07/08 05:16:51;;;;;;;7.47;6.57;;;22.20;55.50;;;;;;5011717;28;20544;-84
2023/07/08 05:19:29;;;;;;;11.50;7.10;;;22.30;54.30;;;;;;5022911;28;20456;-84
2023/07/08 05:22:25;;;;;;;8.00;6.57;;;22.40;54.40;;;;;;5004731;28;20626;-84
2023/07/08 05:25:05;;;;;;;11.20;6.00;;;22.50;55.00;;;;;;5011064;28;20447;-84
2023/07/08 05:27:33;;;;;;;10.20;6.53;;;22.70;54.20;;;;;;5022312;28;20472;-84
2023/07/08 05:30:02;;;;;;;11.80;7.50;;;22.80;54.10;;;;;;5003413;28;20437;-85
2023/07/08 05:32:41;;;;;;;12.13;6.60;;;22.90;54.80;;;;;;5022345;28;20461;-84
2023/07/08 05:35:12;;;;;;;10.17;6.40;;;22.90;53.30;;;;;;5000268;28;21082;-84
2023/07/08 05:40:29;;;;;;;8.00;6.33;;;23.00;53.60;;;;;;5000184;28;20426;-84
2023/07/08 05:42:57;;;;;;;7.50;5.53;;;23.20;53.80;;;;;;5000873;28;20474;-84
2023/07/08 05:45:33;;;;;;;16.83;7.17;;;23.30;53.40;;;;;;5003705;28;20439;-84
2023/07/08 05:47:59;;;;;;;13.77;7.20;;;23.40;52.90;;;;;;5006027;28;20438;-84
2023/07/08 05:50:28;;;;;;;10.30;6.60;;;23.50;51.60;;;;;;5004217;28;21043;-85
2023/07/08 05:52:56;;;;;;;8.93;6.90;;;23.90;52.40;;;;;;5002508;28;20276;-83
2023/07/08 05:55:42;;;;;;;9.73;7.70;;;24.20;51.60;;;;;;5009794;28;20806;-84
2023/07/08 05:58:19;;;;;;;8.30;6.23;;;24.30;51.20;;;;;;5004528;28;20453;-85
2023/07/08 06:01:04;;;;;;;15.60;7.20;;;24.60;51.50;;;;;;5002779;28;20523;-84
2023/07/08 06:03:32;;;;;;;12.73;6.80;;;24.70;50.30;;;;;;5000769;28;20481;-84
2023/07/08 06:05:58;;;;;;;11.83;7.17;;;25.20;49.20;;;;;;4993078;28;20466;-85
2023/07/08 06:08:23;;;;;;;12.17;6.30;;;25.50;48.40;;;;;;5003292;28;20446;-85
2023/07/08 06:10:50;;;;;;;10.30;7.00;;;25.60;46.40;;;;;;5005920;28;20199;-85
2023/07/08 06:13:15;;;;;;;10.20;7.40;;;26.10;46.50;;;;;;5004642;28;20259;-84
2023/07/08 06:15:41;;;;;;;14.03;6.73;;;26.70;45.20;;;;;;5009309;28;20987;-85
2023/07/08 06:18:07;;;;;;;8.37;6.80;;;28.60;47.20;;;;;;5005682;28;20248;-84
2023/07/08 06:20:33;;;;;;;8.30;6.63;;;31.10;46.80;;;;;;5001330;28;20533;-85
2023/07/08 06:23:01;;;;;;;8.57;5.93;;;33.00;42.30;;;;;;5003928;28;20310;-83
2023/07/08 06:25:27;;;;;;;7.10;5.30;;;34.20;35.90;;;;;;4998468;28;20307;-83
2023/07/08 06:27:53;;;;;;;9.37;6.43;;;37.00;31.90;;;;;;4999462;28;20443;-86
2023/07/08 06:30:21;;;;;;;6.50;5.90;;;38.50;23.40;;;;;;4998606;28;20915;-83
2023/07/08 06:32:47;;;;;;;8.77;6.87;;;39.40;16.40;;;;;;4997775;28;20254;-83
2023/07/08 06:35:12;;;;;;;8.57;6.17;;;40.30;9.90;;;;;;4998830;28;20448;-83
2023/07/08 06:37:41;;;;;;;6.30;5.70;;;41.80;5.50;;;;;;4994929;28;20194;-84
2023/07/08 06:40:08;;;;;;;8.50;5.70;;;43.10;1.20;;;;;;5004283;28;20318;-84
2023/07/08 06:42:33;;;;;;;6.53;5.73;;;43.30;1.00;;;;;;4992907;28;21029;-83
2023/07/08 06:44:59;;;;;;;6.60;5.80;;;43.80;1.00;;;;;;4998067;28;20678;-82
2023/07/08 06:47:24;;;;;;;6.63;5.77;;;43.90;1.00;;;;;;4999599;28;20214;-84
2023/07/08 06:49:53;;;;;;;20.20;5.77;;;43.90;1.00;;;;;;4998560;28;20198;-83
2023/07/08 06:52:18;;;;;;;6.80;6.03;;;43.60;1.00;;;;;;5003551;28;20305;-84
2023/07/08 06:54:44;;;;;;;7.40;6.17;;;44.50;1.00;;;;;;4994413;28;20537;-84
2023/07/08 06:57:09;;;;;;;6.90;6.30;;;42.70;1.00;;;;;;4995342;28;20675;-83
2023/07/08 06:59:35;;;;;;;6.33;5.73;;;44.70;1.00;;;;;;4997804;28;20305;-84
2023/07/08 07:02:00;;;;;;;10.07;6.87;;;47.00;1.00;;;;;;4994625;28;20249;-84
2023/07/08 07:04:26;;;;;;;6.37;5.80;;;47.30;1.00;;;;;;4994730;28;20209;-84
2023/07/08 07:06:51;;;;;;;8.10;5.80;;;49.30;1.00;;;;;;4995236;28;20213;-84
2023/07/08 07:09:17;;;;;;;8.80;5.77;;;50.90;1.00;;;;;;4997112;28;20187;-85
2023/07/08 07:11:42;;;;;;;6.10;5.60;;;51.80;1.00;;;;;;4996329;28;20265;-84
2023/07/08 07:14:08;;;;;;;8.13;6.30;;;51.40;1.00;;;;;;4998089;28;20647;-84
2023/07/08 07:16:34;;;;;;;5.68;5.22;;;51.00;1.00;;;;;;5005648;28;20195;-84
2023/07/08 07:18:59;;;;;;;6.40;5.78;;;51.70;1.00;;;;;;4995529;28;20178;-83
2023/07/08 07:21:25;;;;;;;10.95;5.00;;;51.60;1.00;;;;;;4999574;28;20206;-83
2023/07/08 07:23:50;;;;;;;6.63;6.03;;;51.60;1.00;;;;;;5001138;28;20179;-83
2023/07/08 07:26:16;;;;;;;6.50;5.90;;;51.40;1.00;;;;;;5000481;28;20206;-83
2023/07/08 07:28:41;;;;;;;8.23;6.60;;;50.90;1.00;;;;;;4998648;28;20183;-83
2023/07/08 07:31:07;;;;;;;11.10;6.20;;;49.20;1.00;;;;;;4995446;28;20619;-83
2023/07/08 07:33:33;;;;;;;7.07;6.20;;;50.50;1.00;;;;;;5003938;28;20197;-83
2023/07/08 07:35:59;;;;;;;6.10;5.50;;;50.50;1.00;;;;;;5001022;28;20186;-83
2023/07/08 07:38:28;;;;;;;6.67;6.07;;;49.90;1.00;;;;;;5002063;28;20224;-82
2023/07/08 07:40:55;;;;;;;6.67;6.03;;;50.40;1.00;;;;;;4998208;28;20577;-83
2023/07/08 07:43:21;;;;;;;6.33;5.73;;;50.30;1.00;;;;;;4994824;28;20492;-83
2023/07/08 07:45:52;;;;;;;5.90;5.30;;;50.50;1.00;;;;;;4994464;28;20206;-83
2023/07/08 07:48:20;;;;;;;6.63;5.93;;;49.80;1.00;;;;;;5001973;28;20438;-83
2023/07/08 07:50:47;;;;;;;6.27;5.67;;;50.10;1.00;;;;;;5001821;28;20463;-84
2023/07/08 07:53:13;;;;;;;6.30;5.33;;;50.10;1.00;;;;;;4996174;28;20683;-83
2023/07/08 07:55:39;;;;;;;6.27;5.60;;;51.40;1.00;;;;;;4993822;28;20273;-84
2023/07/08 07:58:04;;;;;;;8.93;6.27;;;51.50;1.00;;;;;;4995053;28;20194;-83
2023/07/08 08:00:30;;;;;;;9.93;5.90;;;50.30;1.00;;;;;;4994735;28;20752;-84
2023/07/08 08:02:56;;;;;;;5.70;5.20;;;50.30;1.00;;;;;;4999788;28;20685;-83
2023/07/08 08:05:21;;;;;;;7.00;5.87;;;50.00;1.00;;;;;;4996118;28;20186;-84
2023/07/08 08:07:47;;;;;;;6.30;5.70;;;51.50;1.00;;;;;;4996738;28;20198;-83
2023/07/08 08:10:13;;;;;;;6.67;6.07;;;50.70;1.00;;;;;;4994577;28;20209;-83
2023/07/08 08:12:39;;;;;;;5.70;5.20;;;50.10;1.00;;;;;;4998189;28;20700;-84
2023/07/08 08:15:05;;;;;;;6.33;5.73;;;49.90;1.00;;;;;;5002402;28;20712;-83
2023/07/08 08:17:30;;;;;;;6.67;6.07;;;49.10;1.00;;;;;;5002096;28;20224;-86
2023/07/08 08:19:56;;;;;;;12.97;6.60;;;49.90;1.00;;;;;;4998201;28;20543;-84
2023/07/08 08:22:21;;;;;;;7.90;6.63;;;49.40;1.00;;;;;;5017336;28;20210;-83
2023/07/08 08:24:47;;;;;;;6.87;6.00;;;49.60;1.00;;;;;;5015397;28;20194;-83
2023/07/08 08:27:12;;;;;;;8.77;6.40;;;50.30;1.00;;;;;;5000390;28;20233;-83
2023/07/08 08:29:38;;;;;;;11.10;6.20;;;49.70;1.00;;;;;;5007582;28;20670;-84
2023/07/08 08:32:06;;;;;;;6.80;5.97;;;49.90;1.00;;;;;;4995857;28;20203;-83
2023/07/08 08:34:31;;;;;;;7.80;6.70;;;49.70;1.00;;;;;;5003011;28;20189;-84
2023/07/08 08:36:57;;;;;;;7.33;6.00;;;50.30;1.00;;;;;;5005860;28;20449;-84
2023/07/08 08:39:26;;;;;;;8.03;6.20;;;51.60;1.00;;;;;;5000005;28;20175;-83
2023/07/08 08:41:55;;;;;;;7.40;6.63;;;50.30;1.00;;;;;;5001251;28;20632;-84
2023/07/08 08:44:28;;;;;;;7.33;6.60;;;50.30;1.00;;;;;;4998973;28;20449;-83
2023/07/08 08:47:05;;;;;;;7.70;7.00;;;50.20;1.00;;;;;;4995526;28;20472;-83
2023/07/08 08:49:43;;;;;;;6.97;5.30;;;50.40;1.00;;;;;;4997964;28;20473;-83
2023/07/08 08:52:09;;;;;;;6.40;5.60;;;50.90;1.00;;;;;;5009219;28;20551;-84
2023/07/08 08:54:36;;;;;;;8.23;6.43;;;50.90;1.00;;;;;;5008935;28;21071;-83
2023/07/08 08:57:16;;;;;;;6.83;6.23;;;50.70;1.00;;;;;;5008809;28;20275;-83
2023/07/08 08:59:45;;;;;;;7.80;6.20;;;50.10;1.00;;;;;;5010434;28;20815;-84
2023/07/08 09:02:49;;;;;;;6.87;5.70;;;49.70;1.00;;;;;;5005305;28;20454;-83
2023/07/08 09:05:15;;;;;;;6.40;5.90;;;49.40;1.00;;;;;;5011057;28;20442;-83
2023/07/08 09:07:46;;;;;;;7.10;6.50;;;49.30;1.00;;;;;;5008266;28;20468;-84
2023/07/08 09:10:53;;;;;;;7.47;5.90;;;49.70;1.00;;;;;;4998931;28;20955;-84
2023/07/08 09:13:38;;;;;;;6.63;6.03;;;50.70;1.00;;;;;;5005550;28;20443;-83
2023/07/08 09:16:29;;;;;;;7.67;6.80;;;50.80;1.00;;;;;;5010678;28;20969;-84
2023/07/08 09:19:23;;;;;;;6.77;5.83;;;50.00;1.00;;;;;;5007375;28;20534;-84
2023/07/08 09:22:13;;;;;;;9.23;6.40;;;50.60;1.00;;;;;;5012270;28;20489;-84
2023/07/08 09:24:54;;;;;;;6.43;5.93;;;50.50;1.00;;;;;;5006492;28;20808;-84
2023/07/08 09:27:20;;;;;;;6.83;6.03;;;49.10;1.00;;;;;;5007561;28;20499;-83
2023/07/08 09:29:46;;;;;;;7.30;5.80;;;47.90;1.00;;;;;;5009176;28;20437;-83
2023/07/08 09:32:20;;;;;;;7.20;6.50;;;48.20;1.00;;;;;;5007481;28;20224;-83
2023/07/08 09:34:54;;;;;;;11.50;6.10;;;48.80;1.00;;;;;;5004311;28;20449;-83
2023/07/08 09:37:28;;;;;;;7.33;6.67;;;49.00;1.00;;;;;;5006089;28;21023;-83
2023/07/08 09:39:56;;;;;;;6.67;6.07;;;47.30;1.00;;;;;;5008607;28;20556;-84
2023/07/08 09:42:29;;;;;;;9.57;6.27;;;47.00;1.00;;;;;;5003116;28;20480;-83
2023/07/08 09:44:57;;;;;;;7.13;6.30;;;46.30;1.00;;;;;;5005339;28;20441;-83
2023/07/08 09:47:30;;;;;;;6.87;5.60;;;45.90;1.00;;;;;;5010597;28;20465;-83
2023/07/08 09:49:57;;;;;;;6.43;5.93;;;45.90;1.00;;;;;;5008599;28;20544;-84
2023/07/08 09:52:23;;;;;;;7.00;6.30;;;45.50;1.00;;;;;;5008174;28;20917;-83
2023/07/08 09:54:49;;;;;;;7.97;5.97;;;46.40;1.00;;;;;;5004459;28;20517;-83
2023/07/08 09:57:33;;;;;;;6.97;6.03;;;46.70;1.00;;;;;;5006398;28;20660;-82
2023/07/08 10:00:02;;;;;;;6.47;5.87;;;45.90;1.00;;;;;;5011788;28;20447;-83
2023/07/08 10:02:32;;;;;;;8.33;5.40;;;46.60;1.00;;;;;;5010097;28;20489;-83
2023/07/08 10:05:07;;;;;;;6.70;6.10;;;46.80;1.00;;;;;;5001598;28;20450;-83
2023/07/08 10:07:32;;;;;;;6.23;5.60;;;46.20;1.00;;;;;;5010536;28;20564;-82
2023/07/08 10:10:02;;;;;;;6.60;5.60;;;46.30;1.00;;;;;;5004975;28;20536;-83
2023/07/08 10:12:29;;;;;;;7.53;5.90;;;47.20;1.00;;;;;;5011549;28;20218;-83
2023/07/08 10:15:06;;;;;;;7.73;5.53;;;46.80;1.00;;;;;;5007881;28;21113;-83
2023/07/08 10:17:32;;;;;;;6.97;6.00;;;47.00;1.00;;;;;;5003103;28;20442;-84
2023/07/08 10:19:58;;;;;;;6.20;5.67;;;47.40;1.00;;;;;;4999996;28;21038;-83
2023/07/08 10:22:52;;;;;;;5.93;5.13;;;47.40;1.00;;;;;;5007116;28;20496;-84
2023/07/08 10:25:55;;;;;;;6.80;6.10;;;47.70;1.00;;;;;;5004842;28;20559;-83
2023/07/08 10:28:43;;;;;;;6.73;5.97;;;47.50;1.00;;;;;;5010090;28;20439;-83
2023/07/08 10:31:24;;;;;;;6.97;6.37;;;46.90;1.00;;;;;;5006180;28;20831;-86
2023/07/08 10:33:55;;;;;;;7.10;5.63;;;47.90;1.00;;;;;;5009025;28;20416;-83
2023/07/08 10:36:34;;;;;;;9.87;5.90;;;47.90;1.00;;;;;;5002906;28;20437;-83
2023/07/08 10:39:33;;;;;;;5.90;5.30;;;48.00;1.00;;;;;;5009116;28;20433;-83
2023/07/08 10:42:23;;;;;;;6.60;5.67;;;47.80;1.00;;;;;;5003207;28;20449;-83
2023/07/08 10:45:11;;;;;;;5.63;5.13;;;47.80;1.00;;;;;;5008273;28;20465;-84
2023/07/08 10:47:57;;;;;;;5.73;5.20;;;47.40;1.00;;;;;;5006334;28;20828;-84
2023/07/08 10:50:36;;;;;;;8.83;5.27;;;47.40;1.00;;;;;;5006925;28;20433;-83
2023/07/08 10:53:24;;;;;;;7.13;5.60;;;47.90;1.00;;;;;;5006763;28;20473;-84
2023/07/08 10:56:09;;;;;;;9.60;5.70;;;47.60;1.00;;;;;;5007948;28;20417;-84
2023/07/08 10:58:44;;;;;;;8.43;5.83;;;47.10;1.00;;;;;;5004185;28;20476;-84
2023/07/08 11:01:27;;;;;;;5.50;5.00;;;46.40;1.00;;;;;;5001627;28;20503;-84
2023/07/08 11:04:20;;;;;;;10.30;5.50;;;46.80;1.00;;;;;;4996378;28;20454;-83
2023/07/08 11:06:48;;;;;;;5.97;5.37;;;46.80;1.00;;;;;;5010131;28;21304;-84
2023/07/08 11:09:22;;;;;;;7.80;5.10;;;46.70;1.00;;;;;;5013290;28;20441;-84
2023/07/08 11:11:56;;;;;;;5.47;4.97;;;46.30;1.00;;;;;;5010674;28;20468;-84
2023/07/08 11:14:41;;;;;;;8.03;4.97;;;46.10;1.00;;;;;;5012322;28;20429;-84
2023/07/08 11:17:18;;;;;;;5.60;4.47;;;45.90;1.00;;;;;;5012701;28;20463;-84
2023/07/08 11:19:54;;;;;;;6.83;4.70;;;46.40;1.00;;;;;;5006911;28;20810;-84
2023/07/08 11:22:21;;;;;;;6.20;4.83;;;46.70;1.00;;;;;;5008708;28;20453;-84
2023/07/08 11:24:50;;;;;;;8.40;4.97;;;46.70;1.00;;;;;;5009788;28;20437;-84
2023/07/08 11:27:36;;;;;;;5.73;5.17;;;46.50;1.00;;;;;;5010376;28;21034;-85
2023/07/08 11:30:24;;;;;;;7.60;5.00;;;45.60;1.00;;;;;;5001797;28;20507;-85
2023/07/08 11:33:05;;;;;;;11.30;4.97;;;45.80;1.00;;;;;;5009911;28;20422;-84
2023/07/08 11:35:55;;;;;;;8.20;4.87;;;45.70;1.00;;;;;;5014026;28;20429;-84
2023/07/08 11:38:21;;;;;;;7.60;4.77;;;45.40;1.00;;;;;;5014712;28;20429;-83
2023/07/08 11:40:59;;;;;;;10.63;4.17;;;45.70;1.00;;;;;;5007176;28;20453;-84
2023/07/08 11:43:33;;;;;;;6.80;4.83;;;45.90;1.00;;;;;;5007681;28;20182;-84
2023/07/08 11:46:04;;;;;;;6.63;4.80;;;46.00;1.00;;;;;;5013652;28;20465;-83
2023/07/08 11:48:34;;;;;;;12.40;5.30;;;45.80;1.00;;;;;;5006785;28;20423;-83
2023/07/08 11:51:04;;;;;;;6.50;4.50;;;46.70;1.00;;;;;;5006718;28;20453;-84
2023/07/08 11:53:29;;;;;;;7.23;5.13;;;47.40;1.00;;;;;;5005116;28;20413;-84
2023/07/08 11:55:56;;;;;;;6.73;4.53;;;47.50;1.00;;;;;;5006380;28;20440;-85
2023/07/08 11:58:47;;;;;;;5.97;5.10;;;48.00;1.00;;;;;;5003947;28;20205;-84
2023/07/08 12:01:13;;;;;;;8.67;5.53;;;47.40;1.00;;;;;;5024787;28;20473;-84
2023/07/08 12:03:47;;;;;;;7.67;5.00;;;46.80;1.00;;;;;;5010615;28;20445;-85
2023/07/08 12:06:29;;;;;;;4.80;4.07;;;46.60;1.00;;;;;;5004374;28;20202;-85
2023/07/08 12:08:57;;;;;;;4.97;4.03;;;46.50;1.00;;;;;;5007228;28;20458;-84
2023/07/08 12:11:34;;;;;;;9.43;4.50;;;45.90;1.00;;;;;;5002717;28;20489;-84
2023/07/08 12:14:02;;;;;;;6.17;4.50;;;46.00;1.00;;;;;;5002474;28;20441;-87
2023/07/08 12:16:29;;;;;;;7.60;5.17;;;45.40;1.00;;;;;;5007192;28;20445;-85
2023/07/08 12:18:57;;;;;;;7.67;4.37;;;45.80;1.00;;;;;;5003387;28;21030;-84
2023/07/08 12:21:26;;;;;;;6.30;4.60;;;46.20;1.00;;;;;;5008305;28;20457;-88
2023/07/08 12:23:51;;;;;;;5.03;4.00;;;46.60;1.00;;;;;;5012173;28;20525;-88
2023/07/08 12:26:17;;;;;;;5.47;3.70;;;46.50;1.00;;;;;;5014760;28;21011;-88
2023/07/08 12:28:44;;;;;;;6.10;4.47;;;46.40;1.00;;;;;;5006060;28;20258;-87
2023/07/08 12:31:22;;;;;;;4.73;3.80;;;46.00;1.00;;;;;;5007840;28;20200;-88
2023/07/08 12:33:48;;;;;;;5.70;4.53;;;46.20;1.00;;;;;;5010218;28;20467;-88
2023/07/08 12:36:29;;;;;;;10.20;4.70;;;46.50;1.00;;;;;;5008308;28;20441;-87
2023/07/08 12:39:00;;;;;;;6.63;5.23;;;46.40;1.00;;;;;;5013094;28;20434;-88
2023/07/08 12:41:30;;;;;;;8.40;4.83;;;45.40;1.00;;;;;;5011524;28;20473;-87
2023/07/08 12:43:56;;;;;;;11.03;4.87;;;44.80;1.00;;;;;;5008862;28;20446;-87
2023/07/08 12:46:23;;;;;;;6.00;4.80;;;44.70;1.00;;;;;;5005473;28;20994;-87
2023/07/08 12:48:49;;;;;;;8.67;4.60;;;44.90;1.00;;;;;;5001980;28;20435;-87
2023/07/08 12:51:41;;;;;;;8.53;4.90;;;45.00;1.00;;;;;;5001826;28;21518;-88
2023/07/08 12:54:12;;;;;;;6.43;4.70;;;44.40;1.00;;;;;;5006803;28;20189;-89
2023/07/08 12:56:51;;;;;;;6.43;4.73;;;44.20;1.00;;;;;;5008286;28;20488;-88
2023/07/08 12:59:21;;;;;;;8.40;6.07;;;44.30;1.00;;;;;;5003125;28;20970;-89
2023/07/08 13:01:48;;;;;;;5.80;4.40;;;43.80;1.00;;;;;;4999908;28;20446;-88
2023/07/08 13:04:14;;;;;;;7.87;4.87;;;43.50;1.00;;;;;;5007870;28;20457;-88
2023/07/08 13:06:44;;;;;;;5.50;4.40;;;42.90;1.00;;;;;;5009097;28;20513;-87
2023/07/08 13:09:37;;;;;;;5.93;5.10;;;42.60;1.00;;;;;;5008883;28;20438;-88
2023/07/08 13:12:12;;;;;;;10.83;4.13;;;42.30;1.00;;;;;;5010594;28;20542;-86
2023/07/08 13:14:43;;;;;;;5.83;5.10;;;41.90;1.00;;;;;;5000323;28;20430;-87
2023/07/08 13:17:14;;;;;;;5.13;4.63;;;41.80;1.00;;;;;;5007707;28;20446;-89
2023/07/08 13:19:41;;;;;;;4.17;3.77;;;42.00;1.00;;;;;;5005188;28;20433;-89
2023/07/08 13:22:15;;;;;;;6.67;4.50;;;42.40;1.00;;;;;;5004099;28;20504;-89
2023/07/08 13:24:41;;;;;;;6.93;4.63;;;42.40;1.00;;;;;;5007957;28;20444;-88
2023/07/08 13:27:12;;;;;;;7.80;4.23;;;42.10;1.00;;;;;;5009872;28;20456;-89
2023/07/08 13:29:38;;;;;;;11.40;5.13;;;42.20;1.00;;;;;;4997816;28;20179;-88
2023/07/08 13:32:05;;;;;;;38.47;35.03;;;42.10;1.00;;;;;;5003798;28;20459;-88
2023/07/08 13:34:33;;;;;;;11.20;10.03;;;41.70;1.00;;;;;;5007832;28;20183;-87
2023/07/08 13:36:58;;;;;;;10.00;4.73;;;42.00;1.00;;;;;;5007711;28;20998;-87
2023/07/08 13:39:29;;;;;;;6.43;4.30;;;42.10;1.00;;;;;;5000364;28;20438;-87
2023/07/08 13:41:55;;;;;;;8.70;5.00;;;42.00;1.00;;;;;;5004409;28;20209;-87
2023/07/08 13:44:21;;;;;;;5.87;3.80;;;42.30;1.00;;;;;;4999853;28;20454;-86
2023/07/08 13:46:53;;;;;;;7.10;4.17;;;42.40;1.00;;;;;;5005409;28;20465;-87
2023/07/08 13:49:27;;;;;;;4.80;4.40;;;42.30;1.00;;;;;;5004308;28;20187;-88